Time;durP1;ratioP1;P1;durP2;ratioP2;P2;SDS_P1;SDS_P2;PMS_P1;PMS_P2;Temp;Humidity;BMP_temperature;BMP_pressure;BME280_temperature;BME280_humidity;BME280_pressure;Samples;Min_cycle;Max_cycle;Signal;HPM_P1;HPM_P2
2023/10/26 00:01:56;;;;;;;28.95;15.88;;;17.70;99.90;;;;;;5146205;28;20023;-72
2023/10/26 00:04:27;;;;;;;29.58;15.93;;;17.60;99.90;;;;;;5143605;28;20034;-73
2023/10/26 00:07:00;;;;;;;27.45;16.70;;;17.70;99.90;;;;;;5145824;28;20724;-73
2023/10/26 00:09:31;;;;;;;32.67;15.38;;;17.70;99.90;;;;;;5144384;28;20395;-72
2023/10/26 00:12:02;;;;;;;25.80;15.48;;;17.70;99.90;;;;;;5145709;28;20031;-72
2023/10/26 00:14:33;;;;;;;26.70;15.18;;;17.70;99.90;;;;;;5144964;28;20046;-73
2023/10/26 00:17:04;;;;;;;30.65;15.30;;;17.80;99.90;;;;;;5146628;28;20566;-73
2023/10/26 00:19:35;;;;;;;31.10;15.18;;;17.80;99.90;;;;;;5146563;28;20127;-73
2023/10/26 00:22:06;;;;;;;24.17;14.52;;;17.60;99.90;;;;;;5146629;28;20030;-73
2023/10/26 00:24:37;;;;;;;26.00;15.77;;;17.80;99.90;;;;;;5146600;28;20034;-72
2023/10/26 00:27:08;;;;;;;25.85;15.10;;;17.60;99.90;;;;;;5145389;28;20023;-73
2023/10/26 00:29:39;;;;;;;31.13;15.55;;;17.60;99.90;;;;;;5146309;28;20434;-73
2023/10/26 00:32:11;;;;;;;29.58;17.55;;;17.40;99.90;;;;;;5146290;28;20030;-73
2023/10/26 00:34:42;;;;;;;36.95;17.85;;;17.30;99.90;;;;;;5146352;28;20039;-73
2023/10/26 00:37:12;;;;;;;24.85;16.75;;;17.30;99.90;;;;;;5146278;28;20031;-73
2023/10/26 00:39:44;;;;;;;29.33;17.65;;;17.40;99.90;;;;;;5146313;28;20035;-74
2023/10/26 00:42:15;;;;;;;26.58;17.08;;;17.40;99.90;;;;;;5146282;28;20023;-72
2023/10/26 00:44:46;;;;;;;30.25;17.40;;;17.30;99.90;;;;;;5146185;28;20081;-72
2023/10/26 00:47:17;;;;;;;27.15;16.50;;;17.30;99.90;;;;;;5146363;28;20027;-72
2023/10/26 00:49:48;;;;;;;29.35;17.23;;;17.40;99.90;;;;;;5145782;28;20030;-74
2023/10/26 00:52:20;;;;;;;29.27;17.55;;;17.40;99.90;;;;;;5144699;28;20027;-74
2023/10/26 00:54:52;;;;;;;35.65;16.52;;;17.50;99.90;;;;;;5144844;28;20043;-72
2023/10/26 00:57:24;;;;;;;35.03;16.42;;;17.50;99.90;;;;;;5143601;28;20114;-74
2023/10/26 00:59:55;;;;;;;30.45;17.20;;;17.40;99.90;;;;;;5144717;28;20027;-72
2023/10/26 01:02:26;;;;;;;31.48;18.42;;;17.30;99.90;;;;;;5144762;28;20554;-73
2023/10/26 01:04:57;;;;;;;27.85;18.55;;;17.40;99.90;;;;;;5144758;28;20554;-74
2023/10/26 01:07:27;;;;;;;29.92;18.45;;;17.30;99.90;;;;;;5144699;28;20027;-74
2023/10/26 01:09:58;;;;;;;31.48;18.15;;;17.40;99.90;;;;;;5143827;28;20058;-74
2023/10/26 01:12:29;;;;;;;34.35;19.38;;;17.40;99.90;;;;;;5145789;28;20382;-73
2023/10/26 01:15:00;;;;;;;35.42;18.77;;;17.40;99.90;;;;;;5145776;28;20047;-73
2023/10/26 01:17:31;;;;;;;33.45;18.17;;;17.40;99.90;;;;;;5145549;28;20035;-73
2023/10/26 01:20:04;;;;;;;32.35;18.58;;;17.40;99.90;;;;;;5145642;28;20027;-74
2023/10/26 01:22:35;;;;;;;25.83;15.68;;;17.40;99.90;;;;;;5145229;28;20030;-73
2023/10/26 01:25:06;;;;;;;30.65;16.65;;;17.50;99.90;;;;;;5145175;28;20023;-73
2023/10/26 01:27:38;;;;;;;33.30;16.30;;;17.60;99.90;;;;;;5144287;28;20027;-73
2023/10/26 01:30:10;;;;;;;35.30;17.30;;;17.70;99.90;;;;;;5143831;28;20058;-73
2023/10/26 01:32:41;;;;;;;33.55;16.05;;;17.70;99.90;;;;;;5145034;28;20031;-72
2023/10/26 01:35:12;;;;;;;29.30;16.35;;;17.70;99.90;;;;;;5145105;28;20391;-73
2023/10/26 01:37:43;;;;;;;25.23;16.10;;;17.60;99.90;;;;;;5145258;28;20054;-74
2023/10/26 01:40:14;;;;;;;29.67;15.38;;;17.50;99.90;;;;;;5145025;28;20076;-74
2023/10/26 01:42:44;;;;;;;33.65;15.13;;;17.60;99.90;;;;;;5145089;28;20081;-73
2023/10/26 01:45:15;;;;;;;31.80;15.38;;;17.60;99.90;;;;;;5143650;28;20045;-73
2023/10/26 01:47:46;;;;;;;27.95;14.52;;;17.60;99.90;;;;;;5144418;28;20041;-73
2023/10/26 01:50:17;;;;;;;32.72;15.07;;;17.70;99.90;;;;;;5143017;28;20027;-73
2023/10/26 01:52:48;;;;;;;31.80;14.38;;;17.60;99.90;;;;;;5142544;28;20023;-74
2023/10/26 01:55:18;;;;;;;27.85;14.15;;;17.70;99.90;;;;;;5143636;28;20030;-72
2023/10/26 01:57:49;;;;;;;27.88;14.43;;;17.60;99.90;;;;;;5144115;28;20027;-73
2023/10/26 02:00:20;;;;;;;24.58;14.65;;;17.70;99.90;;;;;;5143880;28;20035;-72
2023/10/26 02:02:51;;;;;;;30.30;15.55;;;17.60;99.90;;;;;;5143733;28;20023;-74
2023/10/26 02:05:22;;;;;;;29.83;14.65;;;17.50;99.90;;;;;;5143930;28;20030;-73
2023/10/26 02:07:53;;;;;;;32.40;15.15;;;17.60;99.90;;;;;;5144667;28;20046;-74
2023/10/26 02:10:29;;;;;;;34.80;14.43;;;17.60;99.90;;;;;;5144480;28;20406;-73
2023/10/26 02:12:59;;;;;;;28.85;13.98;;;17.60;99.90;;;;;;5144596;28;20031;-73
2023/10/26 02:15:30;;;;;;;30.70;14.27;;;17.50;99.90;;;;;;5144227;28;20072;-73
2023/10/26 02:18:01;;;;;;;33.28;15.02;;;17.50;99.90;;;;;;5144608;28;20048;-72
2023/10/26 02:20:32;;;;;;;28.55;16.30;;;17.50;99.90;;;;;;5144486;28;20094;-73
2023/10/26 02:23:04;;;;;;;25.55;15.32;;;17.50;99.90;;;;;;5143028;28;20044;-74
2023/10/26 02:25:35;;;;;;;32.85;17.15;;;17.40;99.90;;;;;;5144635;28;20130;-73
2023/10/26 02:28:06;;;;;;;35.53;17.42;;;17.30;99.90;;;;;;5144187;28;20118;-72
2023/10/26 02:30:37;;;;;;;29.33;18.33;;;17.40;99.90;;;;;;5144454;28;20677;-73
2023/10/26 02:33:07;;;;;;;34.22;17.08;;;17.40;99.90;;;;;;5144346;28;20033;-73
2023/10/26 02:35:39;;;;;;;33.75;17.38;;;17.40;99.90;;;;;;5143048;28;20031;-73
2023/10/26 02:38:10;;;;;;;31.67;17.40;;;17.40;99.90;;;;;;5144244;28;20491;-74
2023/10/26 02:40:41;;;;;;;31.55;17.65;;;17.40;99.90;;;;;;5144282;28;20022;-72
2023/10/26 02:43:12;;;;;;;33.15;17.63;;;17.50;99.90;;;;;;5143552;28;20038;-73
2023/10/26 02:45:42;;;;;;;29.15;16.38;;;17.40;99.90;;;;;;5143694;28;20035;-74
2023/10/26 02:48:13;;;;;;;29.48;17.33;;;17.50;99.90;;;;;;5143154;28;20034;-73
2023/10/26 02:50:44;;;;;;;26.10;17.23;;;17.40;99.90;;;;;;5143331;28;20487;-73
2023/10/26 02:53:15;;;;;;;32.47;18.27;;;17.30;99.90;;;;;;5143118;28;20086;-73
2023/10/26 02:55:45;;;;;;;34.72;16.02;;;17.30;99.90;;;;;;5143858;28;20030;-74
2023/10/26 02:58:16;;;;;;;25.42;15.48;;;17.30;99.90;;;;;;5144239;28;20463;-74
2023/10/26 03:00:47;;;;;;;28.88;15.93;;;17.30;99.90;;;;;;5144349;28;20652;-73
2023/10/26 03:03:18;;;;;;;28.95;15.93;;;17.30;99.90;;;;;;5144414;28;20027;-74
2023/10/26 03:05:48;;;;;;;31.40;16.27;;;17.40;99.90;;;;;;5143735;28;20066;-72
2023/10/26 03:08:20;;;;;;;27.23;15.32;;;17.30;99.90;;;;;;5144326;28;20023;-72
2023/10/26 03:10:51;;;;;;;32.83;17.13;;;17.40;99.90;;;;;;5144293;28;20118;-72
2023/10/26 03:13:21;;;;;;;27.85;16.35;;;17.20;99.90;;;;;;5143784;28;20450;-72
2023/10/26 03:15:53;;;;;;;27.23;15.25;;;17.20;99.90;;;;;;5143946;28;20508;-73
2023/10/26 03:18:23;;;;;;;31.95;18.15;;;17.10;99.90;;;;;;5143845;28;20375;-71
2023/10/26 03:20:54;;;;;;;28.92;16.90;;;17.20;99.90;;;;;;5143804;28;20023;-73
2023/10/26 03:23:25;;;;;;;32.20;16.00;;;17.10;99.90;;;;;;5142794;28;20031;-73
2023/10/26 03:25:56;;;;;;;25.98;16.45;;;17.10;99.90;;;;;;5142451;28;20031;-73
2023/10/26 03:28:27;;;;;;;30.63;15.00;;;17.10;99.90;;;;;;5143865;28;20031;-73
2023/10/26 03:30:57;;;;;;;32.53;16.25;;;17.20;99.90;;;;;;5143888;28;20023;-73
2023/10/26 03:33:28;;;;;;;33.97;15.63;;;17.20;99.90;;;;;;5144029;28;20039;-73
2023/10/26 03:35:59;;;;;;;28.92;15.75;;;17.20;99.90;;;;;;5143856;28;20034;-73
2023/10/26 03:38:31;;;;;;;28.80;15.52;;;17.10;99.90;;;;;;5143825;28;20035;-73
2023/10/26 03:41:02;;;;;;;24.55;15.00;;;17.00;99.90;;;;;;5147242;28;20022;-72
2023/10/26 03:43:33;;;;;;;30.60;15.65;;;17.20;99.90;;;;;;5146317;28;20357;-73
2023/10/26 03:46:07;;;;;;;34.92;15.82;;;16.90;99.90;;;;;;5146199;28;20082;-73
2023/10/26 03:48:38;;;;;;;23.05;15.68;;;17.00;99.90;;;;;;5146162;28;20026;-71
2023/10/26 03:51:09;;;;;;;30.38;15.10;;;17.00;99.90;;;;;;5146183;28;20031;-72
2023/10/26 03:53:40;;;;;;;26.65;14.40;;;17.00;99.90;;;;;;5145726;28;20042;-71
2023/10/26 03:56:11;;;;;;;33.65;17.17;;;17.00;99.90;;;;;;5145788;28;20039;-73
2023/10/26 03:58:41;;;;;;;30.30;15.02;;;17.00;99.90;;;;;;5147029;28;20117;-73
2023/10/26 04:01:12;;;;;;;31.02;15.30;;;17.10;99.90;;;;;;5145552;28;20066;-74
2023/10/26 04:03:43;;;;;;;36.60;15.68;;;17.10;99.90;;;;;;5147028;28;20041;-73
2023/10/26 04:06:14;;;;;;;28.10;15.07;;;17.10;99.90;;;;;;5146951;28;20085;-73
2023/10/26 04:08:45;;;;;;;28.63;15.02;;;17.20;99.90;;;;;;5146709;28;20037;-72
2023/10/26 04:11:17;;;;;;;29.45;15.60;;;17.20;99.90;;;;;;5146772;28;20027;-72
2023/10/26 04:13:48;;;;;;;37.67;14.35;;;17.20;99.90;;;;;;5146776;28;20034;-73
2023/10/26 04:16:18;;;;;;;26.63;14.55;;;17.20;99.90;;;;;;5146973;28;20051;-73
2023/10/26 04:18:49;;;;;;;25.45;13.85;;;17.20;99.90;;;;;;5146949;28;20057;-74
2023/10/26 04:21:20;;;;;;;25.67;15.10;;;17.00;99.90;;;;;;5145031;28;20030;-73
2023/10/26 04:23:51;;;;;;;26.58;15.13;;;17.00;99.90;;;;;;5146595;28;20033;-72
2023/10/26 04:26:21;;;;;;;25.98;14.65;;;16.90;99.90;;;;;;5146689;28;20030;-72
2023/10/26 04:28:53;;;;;;;31.02;14.63;;;16.90;99.90;;;;;;5146381;28;20043;-73
2023/10/26 04:31:24;;;;;;;30.40;14.90;;;16.80;99.90;;;;;;5146787;28;20053;-71
2023/10/26 04:33:55;;;;;;;29.08;14.77;;;16.70;99.90;;;;;;5144840;28;20058;-73
2023/10/26 04:36:26;;;;;;;33.17;14.85;;;16.70;99.90;;;;;;5145984;28;20088;-72
2023/10/26 04:38:57;;;;;;;29.85;14.15;;;16.80;99.90;;;;;;5145714;28;20026;-73
2023/10/26 04:41:27;;;;;;;32.70;13.73;;;16.80;99.90;;;;;;5143888;28;20041;-73
2023/10/26 04:43:59;;;;;;;27.05;14.93;;;16.90;99.90;;;;;;5145015;28;20083;-73
2023/10/26 04:46:29;;;;;;;28.17;14.77;;;17.00;99.90;;;;;;5145227;28;20106;-74
2023/10/26 04:49:00;;;;;;;27.95;14.95;;;16.90;99.90;;;;;;5145163;28;20101;-74
2023/10/26 04:51:32;;;;;;;27.30;14.45;;;16.90;99.90;;;;;;5144806;28;20037;-74
2023/10/26 04:54:03;;;;;;;24.25;13.52;;;16.90;99.90;;;;;;5145745;28;20034;-75
2023/10/26 04:56:33;;;;;;;28.52;14.38;;;16.90;99.90;;;;;;5145874;28;20023;-76
2023/10/26 04:59:04;;;;;;;26.17;14.57;;;16.90;99.90;;;;;;5144596;28;20031;-75
2023/10/26 05:01:35;;;;;;;26.15;14.55;;;16.90;99.90;;;;;;5146175;28;20348;-75
2023/10/26 05:04:06;;;;;;;28.63;14.75;;;17.00;99.90;;;;;;5145835;28;20034;-75
2023/10/26 05:06:37;;;;;;;25.00;13.95;;;17.00;99.90;;;;;;5145875;28;20011;-75
2023/10/26 05:09:08;;;;;;;25.98;13.90;;;17.00;99.90;;;;;;5145713;28;20039;-75
2023/10/26 05:11:39;;;;;;;25.85;14.27;;;17.00;99.90;;;;;;5144379;28;20035;-75
2023/10/26 05:14:09;;;;;;;26.95;13.60;;;17.10;99.90;;;;;;5143967;28;20090;-74
2023/10/26 05:16:41;;;;;;;24.42;13.15;;;17.00;99.90;;;;;;5145368;28;20422;-74
2023/10/26 05:19:12;;;;;;;31.58;13.82;;;17.10;99.90;;;;;;5145572;28;20037;-75
2023/10/26 05:21:43;;;;;;;24.85;12.88;;;17.10;99.90;;;;;;5144206;28;20023;-74
2023/10/26 05:24:13;;;;;;;31.80;13.98;;;17.20;99.90;;;;;;5145518;28;20019;-75
2023/10/26 05:26:44;;;;;;;31.73;13.15;;;17.20;99.90;;;;;;5144421;28;20085;-75
2023/10/26 05:29:15;;;;;;;26.77;13.13;;;17.30;99.90;;;;;;5143852;28;20121;-75
2023/10/26 05:31:46;;;;;;;29.80;13.23;;;17.30;99.90;;;;;;5144032;28;20054;-75
2023/10/26 05:34:16;;;;;;;34.72;12.88;;;17.40;99.90;;;;;;5144032;28;20030;-75
2023/10/26 05:36:48;;;;;;;29.85;13.63;;;17.50;99.90;;;;;;5144162;28;20038;-75
2023/10/26 05:39:19;;;;;;;26.30;13.27;;;17.60;99.90;;;;;;5140612;28;20026;-75
2023/10/26 05:41:51;;;;;;;27.80;12.00;;;17.60;99.90;;;;;;5143784;28;20034;-75
2023/10/26 05:44:22;;;;;;;25.23;11.68;;;17.60;99.90;;;;;;5128344;28;20487;-75
2023/10/26 05:46:53;;;;;;;22.08;12.63;;;17.70;99.90;;;;;;5123568;28;20034;-73
2023/10/26 05:49:24;;;;;;;34.55;12.68;;;17.70;99.90;;;;;;5122953;29;20027;-73
2023/10/26 05:51:57;;;;;;;26.35;12.13;;;17.80;99.90;;;;;;5124312;28;20027;-75
2023/10/26 05:54:28;;;;;;;38.45;12.75;;;17.80;99.90;;;;;;5124670;28;20122;-75
2023/10/26 05:57:00;;;;;;;23.52;11.48;;;18.00;99.90;;;;;;5123265;29;20023;-75
2023/10/26 05:59:31;;;;;;;25.05;12.55;;;18.00;99.90;;;;;;5123430;29;20054;-74
2023/10/26 06:02:02;;;;;;;27.95;12.63;;;18.10;99.90;;;;;;5122517;28;20027;-75
2023/10/26 06:04:33;;;;;;;24.67;12.90;;;18.20;99.90;;;;;;5123278;29;20106;-74
2023/10/26 06:07:04;;;;;;;21.77;13.38;;;18.40;99.90;;;;;;5126507;28;20031;-74
2023/10/26 06:09:34;;;;;;;34.85;14.23;;;18.50;99.90;;;;;;5143594;28;20487;-75
2023/10/26 06:12:06;;;;;;;21.88;13.18;;;18.60;99.90;;;;;;5138032;28;20019;-75
2023/10/26 06:14:37;;;;;;;23.08;12.73;;;18.70;99.90;;;;;;5143037;28;20434;-74
2023/10/26 06:17:08;;;;;;;27.45;13.75;;;18.80;99.90;;;;;;5141992;28;20041;-72
2023/10/26 06:19:38;;;;;;;24.58;12.50;;;19.00;99.90;;;;;;5143478;28;20056;-74
2023/10/26 06:22:09;;;;;;;25.55;13.35;;;19.20;99.90;;;;;;5140926;28;20049;-73
2023/10/26 06:24:41;;;;;;;28.77;14.25;;;19.40;99.90;;;;;;5143998;28;20086;-73
2023/10/26 06:27:12;;;;;;;27.63;13.43;;;19.30;99.90;;;;;;5143580;28;20030;-73
2023/10/26 06:29:44;;;;;;;22.85;14.27;;;19.30;99.90;;;;;;5143103;28;20030;-74
2023/10/26 06:32:15;;;;;;;27.17;14.73;;;19.30;99.90;;;;;;5127310;28;20026;-73
2023/10/26 06:34:46;;;;;;;29.83;14.68;;;19.30;99.90;;;;;;5135772;28;20105;-72
2023/10/26 06:37:17;;;;;;;27.40;15.30;;;19.40;99.90;;;;;;5142903;28;20681;-75
2023/10/26 06:39:47;;;;;;;25.35;14.40;;;19.40;99.90;;;;;;5143203;28;20371;-75
2023/10/26 06:42:18;;;;;;;25.73;15.07;;;19.50;99.90;;;;;;5143067;28;20467;-73
2023/10/26 06:44:49;;;;;;;24.48;14.70;;;19.60;99.90;;;;;;5143474;28;20035;-75
2023/10/26 06:47:20;;;;;;;29.88;14.93;;;19.60;99.90;;;;;;5144176;28;20027;-75
2023/10/26 06:49:51;;;;;;;25.85;13.18;;;19.70;99.90;;;;;;5143429;28;20067;-77
2023/10/26 06:52:22;;;;;;;31.58;15.18;;;19.80;99.90;;;;;;5144249;28;20503;-78
2023/10/26 06:54:53;;;;;;;26.98;15.23;;;19.80;99.90;;;;;;5142941;28;20678;-75
2023/10/26 06:57:24;;;;;;;31.95;13.18;;;20.00;99.90;;;;;;5142726;28;20027;-75
2023/10/26 06:59:54;;;;;;;30.85;12.93;;;20.20;99.90;;;;;;5143363;28;20138;-74
2023/10/26 07:02:25;;;;;;;33.22;14.38;;;20.30;99.90;;;;;;5143913;28;20059;-73
2023/10/26 07:04:56;;;;;;;25.13;12.82;;;20.60;99.90;;;;;;5143228;28;20031;-77
2023/10/26 07:07:27;;;;;;;23.48;12.43;;;20.70;99.90;;;;;;5144361;28;20027;-77
2023/10/26 07:09:58;;;;;;;26.65;12.73;;;20.80;99.90;;;;;;5142730;28;20035;-77
2023/10/26 07:12:30;;;;;;;26.90;12.48;;;20.80;99.90;;;;;;5144028;28;20046;-77
2023/10/26 07:15:01;;;;;;;26.40;11.90;;;20.80;99.90;;;;;;5147472;28;20086;-73
2023/10/26 07:17:32;;;;;;;32.30;13.57;;;20.90;99.90;;;;;;5146676;28;20062;-77
2023/10/26 07:20:03;;;;;;;34.00;12.00;;;21.00;99.90;;;;;;5147659;28;20034;-74
2023/10/26 07:22:34;;;;;;;24.35;11.25;;;21.10;99.90;;;;;;5146931;28;20031;-77
2023/10/26 07:25:06;;;;;;;21.05;10.93;;;21.10;99.90;;;;;;5147567;28;20061;-74
2023/10/26 07:40:27;;;;;;;29.38;11.70;;;21.30;99.90;;;;;;5285920;27;20435;-76
2023/10/26 07:42:58;;;;;;;32.05;10.10;;;22.00;99.90;;;;;;5285586;28;20092;-74
2023/10/26 07:45:28;;;;;;;25.98;11.02;;;22.10;99.90;;;;;;5285494;28;20486;-75
2023/10/26 07:47:59;;;;;;;27.25;9.63;;;22.00;99.90;;;;;;5285710;28;20086;-75
2023/10/26 07:50:30;;;;;;;41.90;10.95;;;22.00;99.90;;;;;;5285120;28;20042;-76
2023/10/26 07:53:01;;;;;;;34.97;10.75;;;22.20;99.90;;;;;;5285338;28;20024;-76
2023/10/26 07:55:33;;;;;;;28.88;11.40;;;22.30;99.90;;;;;;5285408;28;20497;-76
2023/10/26 07:58:04;;;;;;;32.10;11.38;;;22.20;99.90;;;;;;5285376;28;20016;-76
2023/10/26 08:00:37;;;;;;;31.90;11.35;;;22.50;99.90;;;;;;5285060;28;20102;-75
2023/10/26 08:03:09;;;;;;;36.72;11.13;;;22.50;99.90;;;;;;5285229;28;20055;-77
2023/10/26 08:05:40;;;;;;;27.98;11.25;;;22.40;99.90;;;;;;5285085;28;20028;-74
2023/10/26 08:08:11;;;;;;;34.70;10.98;;;22.60;99.90;;;;;;5285112;28;20077;-76
2023/10/26 08:10:42;;;;;;;32.53;11.70;;;22.70;99.90;;;;;;5283296;28;20032;-76
2023/10/26 08:13:13;;;;;;;26.33;10.93;;;22.70;99.90;;;;;;5283973;28;20027;-76
2023/10/26 08:15:44;;;;;;;32.90;12.27;;;22.80;99.90;;;;;;5285104;28;20053;-76
2023/10/26 08:18:15;;;;;;;28.25;12.10;;;22.90;99.90;;;;;;5283985;28;20031;-75
2023/10/26 08:20:51;;;;;;;30.80;11.98;;;22.90;99.90;;;;;;5284848;28;20344;-74
2023/10/26 08:23:22;;;;;;;30.60;10.90;;;23.00;99.90;;;;;;5284053;28;20016;-76
2023/10/26 08:25:53;;;;;;;39.85;12.25;;;23.10;99.90;;;;;;5283943;28;20031;-76
2023/10/26 08:28:24;;;;;;;45.50;13.13;;;23.10;99.90;;;;;;5282571;28;20051;-76
2023/10/26 08:30:55;;;;;;;34.75;11.32;;;23.10;99.90;;;;;;5276357;28;20060;-75
2023/10/26 08:33:28;;;;;;;28.33;11.43;;;23.20;99.90;;;;;;5272258;28;20032;-76
2023/10/26 08:35:58;;;;;;;30.65;10.70;;;23.30;99.90;;;;;;5283586;28;20185;-77
2023/10/26 08:38:29;;;;;;;29.33;11.27;;;23.30;99.90;;;;;;5284423;28;20118;-75
2023/10/26 08:41:00;;;;;;;29.30;9.98;;;23.40;99.90;;;;;;5273055;28;20039;-76
2023/10/26 08:43:33;;;;;;;38.97;12.07;;;23.40;99.90;;;;;;5270659;28;20036;-75
2023/10/26 08:46:07;;;;;;;37.80;11.25;;;23.50;99.90;;;;;;5270431;28;20016;-75
2023/10/26 08:48:39;;;;;;;27.45;11.75;;;23.50;99.90;;;;;;5268635;28;20036;-76
2023/10/26 08:51:10;;;;;;;37.78;12.45;;;23.70;99.90;;;;;;5270076;28;20020;-76
2023/10/26 08:53:42;;;;;;;37.80;12.38;;;23.90;99.90;;;;;;5270115;28;20036;-76
2023/10/26 08:56:17;;;;;;;35.58;10.98;;;24.00;99.90;;;;;;5270192;28;20023;-75
2023/10/26 08:58:48;;;;;;;39.33;10.05;;;23.90;99.90;;;;;;5261738;28;20346;-77
2023/10/26 09:01:19;;;;;;;39.75;10.57;;;24.00;99.90;;;;;;5249037;28;20025;-76
2023/10/26 09:03:50;;;;;;;35.58;9.82;;;24.00;99.90;;;;;;5249021;28;20085;-77
2023/10/26 09:06:21;;;;;;;31.45;9.93;;;24.00;99.90;;;;;;5248944;28;20035;-72
2023/10/26 09:09:01;;;;;;;35.05;10.07;;;24.00;99.90;;;;;;5247763;28;20044;-77
2023/10/26 09:11:32;;;;;;;36.40;10.57;;;23.90;99.90;;;;;;5248900;28;20056;-77
2023/10/26 09:14:22;;;;;;;30.02;9.68;;;23.90;99.90;;;;;;5248800;28;20529;-72
2023/10/26 09:16:53;;;;;;;39.67;10.20;;;24.00;99.90;;;;;;5247825;28;20503;-76
2023/10/26 09:19:38;;;;;;;31.88;9.30;;;23.90;99.90;;;;;;5247844;28;20059;-76
2023/10/26 09:22:12;;;;;;;28.17;9.07;;;23.90;99.90;;;;;;5247956;28;20028;-77
2023/10/26 09:24:43;;;;;;;37.92;10.13;;;23.80;99.90;;;;;;5247656;28;20123;-76
2023/10/26 09:27:21;;;;;;;29.42;9.10;;;23.90;99.90;;;;;;5247673;28;20100;-75
2023/10/26 09:29:52;;;;;;;28.30;9.80;;;23.80;99.90;;;;;;5247358;28;20389;-76
2023/10/26 09:32:32;;;;;;;33.28;9.90;;;23.90;99.90;;;;;;5247597;28;20097;-76
2023/10/26 09:35:03;;;;;;;32.25;10.38;;;23.80;99.90;;;;;;5247489;28;20479;-75
2023/10/26 09:37:51;;;;;;;32.25;8.98;;;23.90;99.90;;;;;;5248271;28;20704;-76
2023/10/26 09:40:23;;;;;;;32.25;9.98;;;23.80;99.90;;;;;;5248468;28;20446;-76
2023/10/26 09:42:57;;;;;;;35.88;9.98;;;23.80;99.90;;;;;;5250539;28;20479;-73
2023/10/26 09:45:28;;;;;;;38.50;9.60;;;23.80;99.90;;;;;;5256347;28;20021;-72
2023/10/26 09:48:02;;;;;;;36.08;9.05;;;23.80;99.90;;;;;;5250887;28;20029;-72
2023/10/26 09:50:40;;;;;;;34.80;9.50;;;23.70;99.90;;;;;;5247632;28;20017;-76
2023/10/26 09:53:11;;;;;;;32.70;9.18;;;23.70;99.90;;;;;;5247319;28;20475;-75
2023/10/26 09:55:45;;;;;;;23.23;8.90;;;23.70;99.90;;;;;;5247044;28;20032;-71
2023/10/26 09:58:17;;;;;;;37.55;10.68;;;23.80;99.90;;;;;;5265983;28;20075;-73
2023/10/26 10:00:51;;;;;;;45.00;10.48;;;23.80;99.90;;;;;;5268843;28;20020;-72
2023/10/26 10:03:22;;;;;;;38.50;9.82;;;23.90;99.90;;;;;;5268935;28;20024;-77
2023/10/26 10:05:52;;;;;;;32.05;10.85;;;23.80;99.90;;;;;;5267061;28;20016;-76
2023/10/26 10:09:13;;;;;;;29.95;10.63;;;23.90;99.90;;;;;;5268326;28;20035;-77
2023/10/26 10:11:44;;;;;;;36.03;10.90;;;23.90;99.90;;;;;;5267115;28;20043;-76
2023/10/26 10:14:50;;;;;;;41.70;11.63;;;23.90;99.90;;;;;;5267968;28;20072;-76
2023/10/26 10:17:42;;;;;;;33.67;11.20;;;23.90;99.90;;;;;;5267422;28;20043;-76
2023/10/26 10:20:18;;;;;;;36.88;10.55;;;23.90;99.90;;;;;;5267031;28;20032;-76
2023/10/26 10:22:52;;;;;;;40.95;10.80;;;24.00;99.90;;;;;;5267274;28;20039;-76
2023/10/26 10:25:48;;;;;;;31.77;10.63;;;24.10;99.90;;;;;;5267386;28;20065;-76
2023/10/26 10:28:20;;;;;;;35.03;10.65;;;24.10;99.90;;;;;;5267513;28;20058;-75
2023/10/26 10:30:56;;;;;;;34.17;10.05;;;24.10;99.90;;;;;;5268203;28;20032;-74
2023/10/26 10:33:28;;;;;;;32.25;9.15;;;24.20;99.90;;;;;;5268381;28;20107;-77
2023/10/26 10:36:04;;;;;;;30.27;8.95;;;24.20;99.90;;;;;;5268144;28;20082;-76
2023/10/26 10:38:35;;;;;;;38.90;10.77;;;24.30;99.90;;;;;;5268144;28;20078;-76
2023/10/26 10:41:07;;;;;;;37.58;10.77;;;24.50;99.90;;;;;;5268247;28;20459;-76
2023/10/26 10:43:46;;;;;;;26.70;9.07;;;24.40;99.90;;;;;;5266967;28;20054;-76
2023/10/26 10:46:26;;;;;;;43.15;10.82;;;24.40;99.90;;;;;;5268181;28;20029;-76
2023/10/26 10:49:05;;;;;;;35.38;9.05;;;24.50;99.90;;;;;;5268150;28;20422;-72
2023/10/26 10:51:37;;;;;;;41.08;8.93;;;24.60;99.90;;;;;;5268037;28;20074;-77
2023/10/26 10:54:13;;;;;;;35.30;9.25;;;24.60;99.90;;;;;;5267956;28;20099;-76
2023/10/26 10:56:48;;;;;;;39.95;9.90;;;24.60;99.90;;;;;;5268001;28;20078;-76
2023/10/26 10:59:27;;;;;;;32.28;9.98;;;24.60;99.90;;;;;;5268057;28;20090;-76
2023/10/26 11:02:11;;;;;;;41.97;9.77;;;24.80;99.90;;;;;;5267856;28;20024;-77
2023/10/26 11:05:02;;;;;;;38.10;9.48;;;24.90;99.90;;;;;;5267525;28;20031;-73
2023/10/26 11:07:33;;;;;;;38.15;8.95;;;25.00;99.90;;;;;;5267133;28;20012;-75
2023/10/26 11:10:04;;;;;;;37.97;9.93;;;25.00;99.90;;;;;;5266988;28;20430;-73
2023/10/26 11:12:35;;;;;;;36.35;9.23;;;25.20;99.90;;;;;;5266451;28;20035;-77
2023/10/26 11:15:07;;;;;;;42.45;10.48;;;25.10;99.90;;;;;;5266670;28;20024;-76
2023/10/26 11:17:39;;;;;;;35.08;9.30;;;25.10;99.90;;;;;;5266510;28;20020;-76
2023/10/26 11:20:32;;;;;;;40.95;9.45;;;25.10;99.90;;;;;;5266445;28;20532;-77
2023/10/26 11:23:14;;;;;;;35.65;8.77;;;25.10;99.90;;;;;;5265258;28;20028;-76
2023/10/26 11:25:45;;;;;;;36.70;8.45;;;25.20;99.90;;;;;;5267191;28;20036;-74
2023/10/26 11:28:33;;;;;;;35.78;8.98;;;25.40;99.90;;;;;;5267182;28;20059;-77
2023/10/26 11:31:03;;;;;;;34.75;9.07;;;25.40;99.90;;;;;;5267543;28;20063;-76
2023/10/26 11:33:37;;;;;;;35.33;8.75;;;25.30;99.90;;;;;;5265167;28;20052;-76
2023/10/26 11:36:12;;;;;;;34.85;9.15;;;25.30;99.90;;;;;;5250542;28;20037;-76
2023/10/26 11:38:47;;;;;;;33.25;9.55;;;25.20;99.90;;;;;;5245911;28;20045;-76
2023/10/26 11:41:22;;;;;;;32.33;8.50;;;25.10;99.90;;;;;;5245944;28;20038;-75
2023/10/26 11:43:54;;;;;;;34.00;9.10;;;25.10;99.90;;;;;;5246376;28;20060;-73
2023/10/26 11:46:35;;;;;;;40.67;8.93;;;25.10;99.90;;;;;;5251683;28;20032;-73
2023/10/26 11:49:06;;;;;;;30.30;9.38;;;25.10;99.90;;;;;;5258589;28;20131;-73
2023/10/26 11:51:38;;;;;;;32.97;8.85;;;25.30;99.90;;;;;;5246194;28;20426;-73
2023/10/26 11:54:13;;;;;;;41.80;8.60;;;25.30;99.90;;;;;;5246667;28;20013;-73
2023/10/26 11:56:44;;;;;;;32.65;8.45;;;25.30;99.90;;;;;;5265584;28;20016;-71
2023/10/26 11:59:15;;;;;;;33.38;8.25;;;25.10;99.90;;;;;;5267100;28;20020;-73
2023/10/26 12:01:46;;;;;;;39.35;9.85;;;25.10;99.90;;;;;;5245799;28;20024;-74
2023/10/26 12:04:16;;;;;;;35.97;9.20;;;24.90;99.90;;;;;;5245931;28;20094;-74
2023/10/26 12:06:47;;;;;;;38.95;8.73;;;24.80;99.90;;;;;;5245503;28;20016;-73
2023/10/26 12:09:18;;;;;;;35.28;9.30;;;24.70;99.90;;;;;;5245198;28;20049;-73
2023/10/26 12:11:50;;;;;;;34.50;8.93;;;24.70;99.90;;;;;;5259501;28;20013;-74
2023/10/26 12:14:20;;;;;;;32.10;9.32;;;24.60;99.90;;;;;;5265819;28;20036;-73
2023/10/26 12:16:52;;;;;;;37.10;9.07;;;24.50;99.90;;;;;;5270114;28;20028;-73
2023/10/26 12:19:23;;;;;;;40.40;8.85;;;24.40;99.90;;;;;;5270230;28;20038;-75
2023/10/26 12:21:54;;;;;;;30.00;9.18;;;24.30;99.90;;;;;;5268562;28;20395;-73
2023/10/26 12:24:25;;;;;;;37.65;8.40;;;24.20;99.90;;;;;;5259268;28;20111;-70
2023/10/26 12:26:57;;;;;;;40.30;9.55;;;24.20;99.90;;;;;;5259365;28;20035;-72
2023/10/26 12:29:29;;;;;;;39.58;9.88;;;24.20;99.90;;;;;;5258216;28;20108;-73
2023/10/26 12:31:59;;;;;;;39.25;9.98;;;24.10;99.90;;;;;;5257952;28;20024;-74
2023/10/26 12:34:31;;;;;;;34.28;10.05;;;24.00;99.90;;;;;;5262129;28;20027;-72
2023/10/26 12:37:03;;;;;;;33.88;8.25;;;24.00;99.90;;;;;;5262029;28;20082;-73
2023/10/26 12:39:34;;;;;;;38.20;10.07;;;24.00;99.90;;;;;;5257445;28;20372;-74
2023/10/26 12:42:05;;;;;;;31.98;9.38;;;23.90;99.90;;;;;;5260710;28;20020;-71
2023/10/26 12:44:36;;;;;;;32.78;9.18;;;23.90;99.90;;;;;;5258756;28;20028;-74
2023/10/26 12:47:07;;;;;;;39.97;9.38;;;23.90;99.90;;;;;;5260955;28;20020;-74
2023/10/26 12:49:38;;;;;;;30.80;9.75;;;23.80;99.90;;;;;;5260481;28;20043;-71
2023/10/26 12:52:09;;;;;;;31.33;9.55;;;23.80;99.90;;;;;;5258358;28;20020;-74
2023/10/26 12:54:40;;;;;;;42.20;9.40;;;23.90;99.90;;;;;;5261451;28;20025;-74
2023/10/26 12:57:20;;;;;;;35.78;8.65;;;23.80;99.90;;;;;;5256757;28;20012;-71
2023/10/26 12:59:51;;;;;;;33.92;9.00;;;23.80;99.90;;;;;;5259558;28;20468;-74
2023/10/26 13:02:24;;;;;;;36.10;8.40;;;23.80;99.90;;;;;;5255819;28;20360;-70
2023/10/26 13:04:55;;;;;;;32.50;9.02;;;23.70;99.90;;;;;;5260551;28;20027;-71
2023/10/26 13:07:27;;;;;;;31.45;8.10;;;23.70;99.90;;;;;;5259311;28;20027;-71